Date,TemperatureHighF,TemperatureAvgF,TemperatureLowF,DewpointHighF,DewpointAvgF,DewpointLowF,HumidityHigh,HumidityAvg,HumidityLow,PressureMaxIn,PressureMinIn,WindSpeedMaxMPH,WindSpeedAvgMPH,GustSpeedMaxMPH,PrecipitationSumIn
2013-1-1,20,10,5,5,0,-7,92,65,46,30.48,30.28,23,2,23,0.00
2013-1-2,22,12,5,1,-3,-7,70,50,37,30.57,30.40,14,2,14,0.00
2013-1-3,26,14,3,-3,-8,-14,68,39,21,30.67,30.53,4,1,10,0.00
2013-1-4,37,25,17,8,0,-9,42,34,29,30.53,30.16,4,1,11,0.00
2013-1-5,38,28,20,6,0,-6,42,30,22,30.40,30.16,6,2,16,0.00
2013-1-6,43,30,19,4,-1,-4,39,27,17,30.39,30.09,12,3,25,0.00
2013-1-7,42,32,25,8,0,-4,31,26,20,30.09,29.91,5,1,10,0.00
2013-1-8,42,33,27,13,6,-4,49,33,22,30.28,29.86,11,4,24,0.00
2013-1-9,45,33,23,12,8,4,50,35,22,30.44,30.13,5,2,11,0.00
2013-1-10,42,32,25,16,5,-2,62,32,19,30.13,29.53,13,5,27,0.00
2013-1-11,26,15,2,18,2,-12,84,57,33,29.98,29.28,17,8,33,0.00
2013-1-12,12,3,-5,-7,-11,-15,80,53,30,30.30,29.97,7,2,14,0.00
2013-1-13,8,0,-7,-6,-10,-13,83,66,43,30.48,30.30,8,3,15,0.00
2013-1-14,12,2,-5,2,-6,-11,81,72,52,30.49,30.39,5,2,10,0.00
2013-1-15,23,10,-5,7,-6,-19,62,50,38,30.61,30.44,6,4,20,0.00
2013-1-16,38,27,16,16,12,6,66,53,38,30.61,30.41,7,2,16,0.00
2013-1-17,39,28,19,17,13,11,71,54,40,30.57,30.40,8,2,15,0.00
2013-1-18,40,31,21,11,6,0,60,37,25,30.40,30.22,8,4,17,0.00
2013-1-19,45,34,23,8,2,-3,35,25,19,30.37,30.24,7,3,18,0.00
2013-1-20,44,33,23,5,-1,-8,45,25,16,30.24,30.09,8,3,17,0.00
2013-1-21,43,33,22,10,4,-5,46,30,20,30.27,30.18,10,5,22,0.00
2013-1-22,50,41,32,0,-5,-9,20,14,11,30.23,30.13,11,7,25,0.00
2013-1-23,54,44,36,1,-6,-13,17,12,9,30.20,30.09,7,4,19,0.00
2013-1-24,46,39,34,23,12,-4,63,36,16,30.11,29.93,10,6,25,0.00
2013-1-25,43,36,32,27,24,22,71,62,48,30.16,30.06,10,2,18,0.00
2013-1-26,44,36,31,32,26,21,91,69,54,30.08,29.63,20,4,32,0.12
2013-1-27,43,36,31,27,23,16,77,60,41,29.81,29.63,20,8,44,0.00
2013-1-28,36,29,20,28,19,4,89,67,46,29.76,29.51,15,6,35,0.00
2013-1-29,19,14,8,10,-2,-11,74,50,29,30.12,29.63,10,4,20,0.00
2013-1-30,26,16,4,6,-1,-11,53,46,36,30.27,30.13,13,7,30,0.00
2013-1-31,36,27,20,11,8,4,57,44,34,30.30,30.20,14,7,32,0.00
2013-2-1,36,28,22,11,9,6,55,44,32,30.30,30.14,23,6,29,0.00
2013-2-2,44,32,21,9,5,2,48,32,20,30.42,30.28,13,3,20,0.00
2013-2-3,41,33,28,11,4,-2,40,29,18,30.32,29.92,17,3,19,0.00
2013-2-4,43,33,24,7,3,-2,34,28,20,30.02,29.93,19,4,20,0.00
2013-2-5,48,35,24,13,8,5,47,34,20,30.10,29.91,18,3,22,0.00
2013-2-6,42,35,29,15,12,8,56,39,27,29.94,29.76,21,4,22,0.00
2013-2-7,41,28,19,18,10,-7,75,49,15,30.19,29.94,13,2,16,0.00
2013-2-8,39,31,23,19,15,8,65,52,39,30.17,29.75,29,7,46,0.00
2013-2-9,31,25,18,18,12,5,86,57,37,29.75,29.45,25,4,28,0.00
2013-2-10,26,18,12,12,3,-5,86,55,27,30.14,29.61,21,4,25,0.00
2013-2-11,16,11,6,12,7,2,86,84,81,30.33,30.13,12,1,13,0.00
2013-2-12,26,17,3,14,7,-2,84,65,48,30.42,30.33,9,2,10,0.10
2013-2-13,34,23,13,13,8,4,69,52,36,30.35,30.17,19,4,24,0.02
2013-2-14,32,23,12,14,9,4,87,56,31,30.35,30.14,14,2,14,0.00
2013-2-15,30,23,10,9,2,-2,87,42,27,30.52,30.34,20,6,21,0.00
2013-2-16,40,30,20,12,6,2,48,37,28,30.49,30.13,23,6,26,0.00
2013-2-17,40,33,24,11,2,-5,57,27,20,30.13,29.65,19,4,27,0.00
2013-2-18,29,22,13,11,1,-7,78,42,25,30.22,29.67,15,4,22,0.00
2013-2-19,36,28,14,5,1,-7,58,32,17,30.23,29.83,21,4,21,0.00
2013-2-20,30,23,19,17,14,2,89,70,44,29.84,29.55,12,2,12,0.00
2013-2-21,29,20,14,23,16,11,92,84,62,29.97,29.62,9,1,14,0.15
2013-2-22,26,19,14,16,11,7,87,71,48,30.08,29.96,9,2,11,0.01
2013-2-23,34,22,12,17,8,-2,87,56,42,30.10,29.79,28,15,28,0.05
2013-2-24,20,16,9,17,11,4,89,82,72,30.22,29.72,16,6,16,0.00
2013-2-25,33,24,6,12,7,0,84,49,36,30.33,30.03,10,3,15,0.11
2013-2-26,24,18,11,16,8,2,88,66,44,30.27,29.81,11,2,15,0.00
2013-2-27,28,15,7,8,0,-5,71,53,29,30.52,30.27,13,2,18,0.07
2013-2-28,32,20,8,7,1,-6,54,42,30,30.51,30.40,19,5,22,0.01
2013-3-1,42,29,19,16,11,6,60,48,34,30.47,30.38,20,5,21,0.00
2013-3-2,48,36,26,20,16,14,64,45,32,30.45,30.15,18,12,18,0.00
2013-3-3,45,38,32,22,16,10,65,42,29,30.12,29.67,33,18,33,0.00
2013-3-4,38,29,14,25,20,11,89,70,38,30.16,29.66,26,11,26,0.00
2013-3-5,45,29,9,12,4,-5,87,39,16,30.41,30.16,21,10,21,0.03
2013-3-6,47,39,31,19,11,2,38,31,26,30.24,29.83,33,18,33,0.00
2013-3-7,51,44,38,14,10,6,36,25,18,29.88,29.78,47,8,47,0.00
2013-3-8,46,38,29,25,18,11,77,47,30,29.83,29.52,22,4,28,0.00
2013-3-9,29,24,17,22,20,13,89,83,71,30.10,29.48,23,2,23,0.00
2013-3-10,36,21,10,17,10,4,87,65,35,30.31,30.10,17,3,18,0.20
2013-3-11,44,36,24,17,14,8,53,41,32,30.29,30.00,23,7,23,0.01
2013-3-12,46,34,22,23,18,14,80,55,36,30.27,30.08,14,2,22,0.00
2013-3-13,52,40,33,23,18,14,51,41,30,30.29,30.20,16,4,21,0.00
2013-3-14,58,45,36,20,16,13,42,32,20,30.30,30.12,13,3,16,0.00
2013-3-15,57,48,42,22,17,14,36,29,22,30.11,29.78,20,5,24,0.00
2013-3-16,45,38,30,30,23,17,86,58,33,29.80,29.69,12,2,15,0.00
2013-3-17,41,33,27,27,19,11,86,58,32,29.82,29.57,25,5,30,0.01
2013-3-18,36,29,23,15,8,1,59,40,31,30.04,29.81,22,7,30,0.00
2013-3-19,41,32,24,10,6,-4,45,34,15,30.26,30.02,12,3,21,0.00
2013-3-20,45,32,18,21,10,0,57,42,26,30.27,29.86,21,4,27,0.00
2013-3-21,41,34,27,27,18,5,84,53,34,29.86,29.52,29,6,40,0.00
2013-3-22,38,28,20,20,14,5,89,59,32,29.81,29.66,16,3,19,0.00
2013-3-23,26,13,4,13,8,0,92,81,44,30.35,29.71,16,3,18,0.00
2013-3-24,22,10,2,8,3,-2,92,74,50,30.47,30.33,12,2,16,0.05
2013-3-25,31,15,2,11,4,-4,92,63,28,30.52,30.44,13,1,16,0.02
2013-3-26,46,32,12,18,12,4,78,45,30,30.49,30.05,18,4,21,0.00
2013-3-27,51,39,32,25,17,11,61,42,24,30.05,29.91,17,4,29,0.00
2013-3-28,52,40,28,23,20,15,72,47,24,30.10,30.00,11,2,17,0.00
2013-3-29,54,43,35,24,20,16,55,42,26,30.09,29.98,18,3,18,0.00
2013-3-30,53,43,36,25,21,17,61,42,27,30.06,29.92,18,3,21,0.00
2013-3-31,57,42,28,27,20,10,90,49,21,30.04,29.90,15,3,16,0.00
2013-4-1,52,37,24,26,20,13,87,53,29,29.98,29.76,17,3,18,0.00
2013-4-2,40,28,22,27,23,19,92,84,59,30.18,29.95,18,2,19,0.00
2013-4-3,46,33,24,32,24,16,93,73,35,30.24,30.15,15,1,16,0.28
2013-4-4,58,44,30,23,18,14,55,36,21,30.24,29.99,12,2,18,0.00
2013-4-5,57,46,37,29,20,15,72,38,22,29.98,29.61,24,6,27,0.00
2013-4-6,54,43,34,29,19,7,73,42,18,29.82,29.70,21,4,25,0.00
2013-4-7,51,41,34,25,21,18,63,45,31,29.78,29.63,21,5,26,0.00
2013-4-8,55,44,36,28,21,16,58,41,25,29.67,29.25,28,4,34,0.00
2013-4-9,42,19,7,29,14,3,88,81,49,30.08,29.31,19,3,27,0.02
2013-4-10,32,16,3,23,11,-1,89,81,62,30.31,30.08,9,2,13,0.02
2013-4-11,45,32,19,25,17,8,86,55,35,30.15,29.90,19,5,24,0.00
2013-4-12,46,35,23,27,22,16,90,64,31,29.99,29.87,17,3,20,0.00
2013-4-13,53,41,27,27,19,14,87,44,25,29.98,29.39,22,6,30,0.00
2013-4-14,40,34,28,31,21,10,92,62,38,29.68,29.34,29,5,37,0.23
2013-4-15,52,33,21,25,16,5,81,50,30,29.84,29.57,29,6,36,0.00
2013-4-16,32,24,16,22,18,13,91,80,63,29.96,29.77,20,7,27,0.00
2013-4-17,23,19,9,21,17,6,92,90,86,30.15,29.83,18,5,19,0.00
2013-4-18,26,17,5,14,6,0,88,66,36,30.48,30.15,16,3,21,0.14
2013-4-19,41,29,15,17,10,0,57,44,33,30.48,30.10,16,5,24,0.02
2013-4-20,43,34,29,27,20,14,83,58,41,30.10,29.89,20,4,21,0.00
2013-4-21,50,39,29,25,19,10,79,47,21,30.12,29.98,19,3,22,0.00
2013-4-22,55,38,16,27,21,13,89,55,24,29.98,29.68,22,6,25,0.00
2013-4-23,24,17,12,20,13,9,89,86,81,30.43,29.96,11,2,13,0.06
2013-4-24,45,34,14,18,13,6,86,44,24,30.44,30.30,15,4,21,0.01
2013-4-25,55,42,27,26,19,12,64,42,27,30.32,29.88,21,4,24,0.00
2013-4-26,51,43,35,28,22,16,67,45,28,30.20,29.91,17,3,22,0.00
2013-4-27,60,47,35,26,19,10,68,37,17,30.19,30.00,13,3,21,0.00
2013-4-28,66,53,42,23,18,13,33,26,18,30.00,29.70,17,3,18,0.00
2013-4-29,65,55,45,26,21,18,40,28,19,29.73,29.48,23,4,29,0.00
2013-4-30,66,55,40,31,23,16,70,30,17,29.52,29.38,21,5,26,0.00
2013-5-1,40,26,16,31,23,13,93,88,71,30.58,29.51,16,4,17,0.00
2013-5-2,33,22,13,28,19,10,98,87,76,30.86,30.58,9,1,12,0.33
2013-5-3,53,36,22,24,18,14,90,52,26,30.64,30.11,13,3,15,0.00
2013-5-4,49,38,28,27,20,14,61,48,36,30.16,29.99,16,3,19,0.00
2013-5-5,50,37,26,26,19,14,60,49,32,30.16,30.06,10,2,13,0.00
2013-5-6,49,39,32,39,29,17,92,69,51,30.11,29.87,15,2,21,0.16
2013-5-7,54,42,36,37,30,24,82,64,33,29.96,29.86,16,3,19,0.00
2013-5-8,44,37,31,35,30,27,94,79,57,30.06,29.87,25,2,28,0.64
2013-5-9,35,33,31,33,30,29,93,90,87,30.28,30.03,9,1,10,0.49
2013-5-10,47,39,30,39,31,27,89,74,57,30.33,30.23,13,1,15,0.07
2013-5-11,58,44,36,35,30,26,73,61,31,30.35,30.19,13,2,17,0.01
2013-5-12,64,52,40,35,30,27,72,45,27,30.23,30.03,17,3,17,0.00
2013-5-13,68,57,50,37,31,26,46,38,27,30.06,29.89,16,2,18,0.00
2013-5-14,64,56,49,41,35,31,64,46,31,29.89,29.73,16,3,21,0.00
2013-5-15,63,51,45,40,37,33,80,59,36,29.80,29.73,21,3,25,0.01
2013-5-16,69,55,43,38,33,28,80,46,23,29.79,29.65,17,3,21,0.00
2013-5-17,67,59,46,30,21,9,52,25,14,29.70,29.59,20,5,26,0.00
2013-5-18,62,50,40,31,22,12,59,34,18,29.66,29.55,21,4,28,0.00
2013-5-19,52,43,38,28,24,20,61,48,30,29.81,29.66,19,5,23,0.00
2013-5-20,54,41,35,37,27,22,83,60,34,29.96,29.77,13,4,17,0.08
2013-5-21,60,46,35,30,25,21,70,46,24,29.99,29.81,15,3,19,0.00
2013-5-22,66,51,37,34,30,25,71,47,23,29.83,29.67,23,3,35,0.00
2013-5-23,66,47,39,42,38,29,89,73,32,29.90,29.74,15,3,21,0.00
2013-5-24,70,56,39,40,26,15,93,40,15,29.94,29.79,32,6,33,0.00
2013-5-25,72,61,50,23,19,16,30,20,13,29.80,29.61,23,5,29,0.00
2013-5-26,73,61,50,23,19,14,29,20,12,29.68,29.52,20,4,24,0.00
2013-5-27,68,58,49,24,20,14,27,22,18,29.63,29.47,27,4,30,0.00
2013-5-28,69,57,43,27,19,8,53,24,14,29.57,29.36,23,4,28,0.00
2013-5-29,58,49,42,30,24,18,63,38,23,29.57,29.35,19,5,26,0.00
2013-5-30,58,48,38,22,20,13,52,34,20,29.77,29.56,27,7,41,0.00
2013-5-31,59,49,41,24,17,8,48,29,15,29.91,29.72,27,7,28,0.00
2013-6-1,65,49,38,30,21,11,58,34,19,30.02,29.91,13,3,21,0.00
2013-6-2,74,56,38,31,28,22,72,40,17,30.02,29.71,14,3,21,0.00
2013-6-3,74,62,53,34,29,25,39,30,18,29.72,29.50,26,4,36,0.00
2013-6-4,71,59,51,42,32,28,72,36,23,29.73,29.62,24,3,34,0.00
2013-6-5,57,47,42,44,42,40,94,81,62,29.98,29.73,15,3,18,0.01
2013-6-6,70,53,40,41,36,28,98,59,23,29.99,29.87,20,2,20,0.01
2013-6-7,67,54,46,45,38,33,81,56,29,29.92,29.70,22,1,25,0.07
2013-6-8,77,61,50,42,35,26,62,40,16,29.72,29.56,16,3,26,0.00
2013-6-9,82,63,45,40,35,28,77,42,14,29.81,29.70,16,3,19,0.00
2013-6-10,84,69,58,36,32,29,35,26,17,29.75,29.55,20,3,22,0.00
2013-6-11,82,70,62,31,26,16,28,20,9,29.65,29.46,29,6,42,0.00
2013-6-12,82,69,58,34,26,20,27,20,15,29.76,29.64,17,2,22,0.00
2013-6-13,81,66,58,43,30,20,50,27,18,29.72,29.58,24,3,27,0.01
2013-6-14,76,64,54,44,38,33,59,40,23,29.72,29.56,27,5,31,0.01
2013-6-15,75,61,49,40,33,25,69,38,18,29.81,29.65,22,3,25,0.00
2013-6-16,76,57,50,49,37,31,74,49,24,29.91,29.75,23,2,35,0.20
2013-6-17,75,59,50,40,36,28,68,46,20,29.93,29.80,18,3,20,0.00
2013-6-18,72,58,46,43,39,31,81,53,26,29.89,29.68,22,4,22,0.04
2013-6-19,78,62,44,44,29,14,88,40,11,29.73,29.54,32,6,37,0.01
2013-6-20,77,66,54,23,17,12,21,15,10,29.60,29.51,25,6,30,0.00
2013-6-21,77,66,55,28,22,15,23,19,14,29.64,29.52,26,5,28,0.00
2013-6-22,76,66,56,27,23,19,27,20,14,29.60,29.46,22,5,30,0.00
2013-6-23,74,62,52,42,32,17,52,32,15,29.67,29.51,18,3,21,0.00
2013-6-24,74,62,50,46,30,17,84,38,14,29.64,29.53,25,6,31,0.00
2013-6-25,78,66,56,34,27,18,27,23,19,29.71,29.59,18,5,28,0.00
2013-6-26,85,71,58,38,34,29,37,26,15,29.78,29.66,15,2,17,0.00
2013-6-27,90,74,63,43,35,30,43,26,13,29.85,29.70,18,3,24,0.00
2013-6-28,83,67,58,46,43,33,63,45,18,29.90,29.74,34,3,34,0.07
2013-6-29,79,58,48,51,44,41,91,62,28,29.96,29.78,14,2,24,0.86
2013-6-30,69,56,50,52,47,40,93,73,47,30.04,29.86,15,2,18,0.09
2013-7-1,66,55,47,51,47,44,95,76,50,30.08,29.99,17,2,18,0.09
2013-7-2,71,56,46,50,44,41,93,68,37,30.06,29.89,15,2,21,0.01
2013-7-3,72,57,48,45,41,34,81,58,26,29.95,29.75,25,2,28,0.02
2013-7-4,79,63,52,45,40,37,61,46,24,29.80,29.66,14,2,18,0.00
2013-7-5,79,64,54,50,44,39,82,50,30,29.68,29.50,19,3,20,0.00
2013-7-6,77,63,54,51,46,41,79,56,32,29.77,29.61,18,2,22,0.01
2013-7-7,76,64,55,49,46,44,71,54,33,29.80,29.69,16,2,18,0.00
2013-7-8,81,66,51,50,44,36,87,52,23,29.86,29.76,13,3,16,0.02
2013-7-9,82,70,63,44,41,38,47,35,22,29.83,29.72,15,2,21,0.00
2013-7-10,83,65,55,52,46,38,83,52,26,29.83,29.70,21,3,26,0.08
2013-7-11,84,66,51,52,47,38,94,57,20,29.83,29.65,22,3,26,0.00
2013-7-12,82,67,61,53,46,43,62,47,28,29.70,29.56,18,3,21,0.04
2013-7-13,82,67,59,49,47,43,65,51,29,29.76,29.68,18,2,20,0.00
2013-7-14,76,61,52,53,50,47,93,69,40,29.90,29.73,25,2,25,0.00
2013-7-15,54,52,49,52,50,45,96,92,86,30.03,29.85,11,2,13,0.17
2013-7-16,67,54,44,49,45,41,92,71,49,30.07,29.99,13,3,19,0.00
2013-7-17,74,66,55,51,46,44,75,50,38,30.06,29.92,12,3,17,0.00
2013-7-18,79,61,51,51,47,43,93,63,34,29.95,29.72,15,3,22,0.35
2013-7-19,74,57,50,54,49,46,92,75,44,29.93,29.85,18,2,21,0.42
2013-7-20,77,62,50,54,48,43,88,63,32,29.91,29.69,16,2,16,0.00
2013-7-21,81,65,52,52,44,32,90,53,20,29.75,29.62,16,3,25,0.00
2013-7-22,82,69,62,43,40,35,44,35,21,29.70,29.61,17,3,19,0.00
2013-7-23,86,70,59,48,38,31,59,34,16,29.76,29.63,18,2,28,0.16
2013-7-24,66,59,51,57,50,37,92,71,39,29.91,29.72,18,3,25,0.17
2013-7-25,71,59,52,53,47,44,86,67,39,29.99,29.83,15,3,19,0.09
2013-7-26,68,58,49,53,48,44,85,69,52,30.03,29.96,15,2,18,0.00
2013-7-27,77,60,52,51,46,39,86,63,26,30.00,29.70,22,3,23,0.29
2013-7-28,66,56,50,53,50,46,93,79,53,29.78,29.69,12,3,17,0.07
2013-7-29,73,60,51,51,46,40,94,63,32,29.94,29.72,15,3,21,0.00
2013-7-30,76,63,50,44,40,35,73,45,28,29.99,29.92,22,3,22,0.00
2013-7-31,81,66,55,51,41,30,76,43,17,30.00,29.81,14,2,17,0.00
2013-8-1,71,60,52,52,48,45,87,67,42,29.84,29.77,16,3,21,0.06
2013-8-2,79,63,55,53,45,41,77,53,29,29.81,29.70,19,4,20,0.01
2013-8-3,77,63,54,52,46,43,92,56,33,29.92,29.77,15,2,17,0.01
2013-8-4,82,61,51,54,48,36,93,69,25,29.94,29.78,13,2,18,0.24
2013-8-5,77,61,53,51,47,41,87,62,30,29.91,29.79,17,2,24,0.01
2013-8-6,76,58,50,50,45,38,88,66,29,29.86,29.73,18,2,20,0.29
2013-8-7,56,52,49,49,45,42,93,77,65,29.94,29.82,11,2,16,0.02
2013-8-8,65,54,48,50,42,38,76,67,52,30.00,29.84,14,1,18,0.02
2013-8-9,69,54,46,50,42,38,85,66,39,30.08,29.97,12,2,16,0.02
2013-8-10,73,57,48,45,41,35,88,58,28,30.09,29.91,21,3,30,0.03
2013-8-11,71,57,48,48,41,36,84,57,35,30.00,29.89,15,3,16,0.57
2013-8-12,70,56,48,50,44,40,82,64,38,30.01,29.90,12,1,17,0.05
2013-8-13,71,56,46,49,44,38,92,68,31,30.02,29.93,12,2,16,0.00
2013-8-14,74,59,49,47,40,30,84,54,21,30.00,29.87,15,2,17,0.00
2013-8-15,77,63,50,47,39,31,75,46,19,29.93,29.83,15,2,19,0.00
2013-8-16,81,65,53,45,38,30,62,40,18,29.90,29.81,15,2,17,0.00
2013-8-17,80,67,58,46,36,30,56,34,18,29.88,29.73,12,2,14,0.00
2013-8-18,80,66,58,47,41,35,63,43,20,29.80,29.72,14,3,21,0.00
2013-8-19,80,67,53,45,41,38,63,40,25,29.86,29.78,14,2,19,0.00
2013-8-20,80,67,55,44,40,33,57,39,23,29.82,29.69,20,1,23,0.00
2013-8-21,80,66,60,46,43,39,50,43,26,29.82,29.71,14,2,14,0.00
2013-8-22,79,64,51,56,47,41,91,56,33,29.86,29.68,17,3,22,0.71
2013-8-23,75,60,50,51,47,35,93,66,35,29.86,29.70,19,2,19,0.05
2013-8-24,73,62,55,55,44,34,65,53,36,29.84,29.71,18,4,21,0.03
2013-8-25,68,60,54,51,48,46,75,64,46,29.93,29.84,19,5,25,0.02
2013-8-26,78,66,57,51,47,44,74,53,32,29.93,29.78,17,4,26,0.00
2013-8-27,78,65,58,55,47,41,69,53,30,29.82,29.72,14,2,18,0.01
2013-8-28,82,67,56,49,43,37,65,44,22,29.81,29.71,16,2,17,0.00
2013-8-29,82,68,57,48,43,38,59,43,22,29.85,29.75,12,1,15,0.00
2013-8-30,80,67,58,48,44,37,63,46,24,29.86,29.74,17,2,21,0.00
2013-8-31,79,63,57,50,46,42,73,56,30,29.82,29.71,16,1,19,0.00
2013-9-1,72,59,54,55,50,45,93,72,46,29.92,29.80,17,2,17,0.07
2013-9-2,78,61,53,52,47,43,93,63,33,29.92,29.82,18,2,24,0.00
2013-9-3,79,65,58,50,46,44,64,51,32,29.86,29.78,20,2,24,0.00
2013-9-4,77,64,58,51,48,45,70,56,34,29.93,29.83,14,2,18,0.00
2013-9-5,83,68,56,48,43,38,67,44,25,29.94,29.82,15,2,23,0.00
2013-9-6,83,69,60,46,40,37,47,36,21,29.84,29.68,17,2,19,0.00
2013-9-7,81,66,56,44,41,38,57,40,24,29.79,29.67,18,2,21,0.00
2013-9-8,78,67,58,45,42,38,52,40,26,29.73,29.53,15,3,20,0.00
2013-9-9,74,64,56,48,44,41,74,49,34,29.63,29.50,17,4,24,0.05
2013-9-10,58,52,50,52,49,47,95,89,72,29.96,29.62,12,2,12,0.59
2013-9-11,59,52,50,54,50,48,96,93,81,30.00,29.93,11,2,13,0.34
2013-9-12,57,52,50,53,51,49,97,94,85,30.03,29.93,11,2,14,0.40
2013-9-13,56,51,49,50,48,43,100,87,73,29.93,29.76,12,3,17,0.59
2013-9-14,65,54,49,48,44,41,85,70,48,29.83,29.69,16,3,19,0.00
2013-9-15,62,50,45,49,44,39,95,79,60,30.06,29.78,20,2,21,0.54
2013-9-16,65,52,42,51,46,41,100,82,49,30.08,29.93,11,2,14,0.18
2013-9-17,67,57,49,48,45,42,88,65,43,29.96,29.68,17,3,19,0.00
2013-9-18,61,54,46,47,44,40,90,69,53,29.77,29.60,19,5,23,0.36
2013-9-19,63,51,45,46,41,37,86,70,44,29.96,29.75,16,4,18,0.04
2013-9-20,66,51,42,47,43,40,94,77,40,29.97,29.85,13,2,14,0.00
2013-9-21,67,56,46,45,41,37,91,58,37,29.91,29.65,12,2,17,0.00
2013-9-22,56,49,38,46,40,35,94,73,52,29.64,29.36,21,2,21,0.29
2013-9-23,54,44,36,35,30,24,91,59,38,30.04,29.41,19,5,27,0.01
2013-9-24,65,51,36,30,26,19,65,40,22,30.10,29.79,16,2,21,0.00
2013-9-25,65,57,51,34,28,19,38,33,25,29.80,29.38,30,10,37,0.00
2013-9-26,66,56,48,29,24,20,38,29,21,29.54,29.41,28,7,28,0.00
2013-9-27,52,45,32,40,30,18,78,58,39,29.87,29.45,23,5,36,0.02
2013-9-28,59,43,30,27,18,12,58,39,21,30.18,29.86,17,3,22,0.00
2013-9-29,63,51,41,26,20,17,43,31,20,30.13,29.83,20,3,25,0.00
2013-9-30,68,57,48,35,27,19,36,31,27,29.83,29.63,21,4,25,0.00
2013-10-1,64,55,47,36,29,24,52,37,29,29.80,29.69,12,2,15,0.00
2013-10-2,66,55,47,31,23,16,52,30,21,29.82,29.66,16,2,18,0.00
2013-10-3,64,54,47,28,24,20,39,31,21,29.66,29.43,27,7,32,0.00
2013-10-4,51,35,26,25,14,5,59,42,24,30.11,29.41,35,6,37,0.00
2013-10-5,50,35,24,14,9,0,53,36,15,30.33,30.10,18,5,25,0.00
2013-10-6,63,45,32,27,15,2,38,30,24,30.32,30.15,13,2,15,0.00
2013-10-7,68,54,41,27,22,16,41,30,20,30.20,29.82,17,2,23,0.00
2013-10-8,62,54,46,26,22,18,34,29,24,29.82,29.55,22,7,27,0.00
2013-10-9,60,52,46,30,24,18,47,34,24,29.72,29.61,22,4,26,0.00
2013-10-10,55,40,27,36,29,21,93,67,37,29.72,29.40,28,5,35,0.06
2013-10-11,48,38,32,28,24,21,67,55,43,30.05,29.63,21,6,28,0.01
2013-10-12,49,37,28,32,27,21,89,68,43,30.14,30.03,10,2,13,0.00
2013-10-13,56,45,34,37,31,25,82,60,40,30.14,29.82,20,5,27,0.02
2013-10-14,46,39,30,35,23,19,89,54,36,30.04,29.72,21,6,25,0.00
2013-10-15,34,26,23,27,23,20,100,87,59,30.28,30.03,9,1,9,0.01
2013-10-16,42,30,21,28,20,13,93,70,41,30.28,30.16,12,2,18,0.14
2013-10-17,48,35,26,21,15,9,67,45,25,30.16,29.95,15,3,17,0.00
2013-10-18,42,30,22,27,18,8,92,67,25,30.25,29.94,12,2,15,0.04
2013-10-19,51,38,27,20,14,7,52,38,27,30.26,29.98,19,4,22,0.00
2013-10-20,51,38,31,28,20,13,89,50,30,30.01,29.79,13,2,18,0.00
2013-10-21,50,36,26,28,22,16,93,62,26,30.23,30.01,10,1,16,0.02
2013-10-22,59,42,32,26,21,17,55,44,24,30.24,30.08,12,2,16,0.00
2013-10-23,61,46,36,24,21,17,53,38,22,30.11,29.98,13,3,15,0.00
2013-10-24,60,43,35,29,25,21,73,50,24,30.12,30.00,13,2,14,0.00
2013-10-25,54,43,35,33,28,23,81,57,33,30.12,30.00,11,2,14,0.00
2013-10-26,55,43,35,31,27,23,77,57,29,30.26,30.12,11,1,13,0.00
2013-10-27,53,45,39,28,25,23,57,47,35,30.13,29.77,17,4,26,0.00
2013-10-28,53,41,29,29,25,18,81,56,29,29.83,29.69,25,4,25,0.00
2013-10-29,47,39,32,31,22,16,92,52,30,29.88,29.73,26,7,30,0.01
2013-10-30,39,32,26,29,18,13,90,57,41,29.89,29.74,24,4,38,0.00
2013-10-31,39,30,25,17,14,11,61,52,37,30.07,29.87,25,7,27,0.01
2013-11-1,46,34,28,19,16,11,64,48,24,30.28,30.06,15,2,26,0.00
2013-11-2,55,41,28,18,12,7,50,32,18,30.27,29.86,32,4,35,0.00
2013-11-3,50,41,34,24,18,11,56,39,22,29.87,29.46,23,7,31,0.00
2013-11-4,35,28,22,24,18,10,89,68,38,29.98,29.67,18,3,19,0.00
2013-11-5,33,26,18,25,14,-1,92,64,39,30.27,29.91,19,3,26,0.12
2013-11-6,38,29,19,14,8,-3,49,41,35,30.52,30.26,19,5,26,0.01
2013-11-7,50,37,26,20,15,12,55,41,28,30.51,30.11,15,3,18,0.01
2013-11-8,52,43,35,18,15,11,43,33,25,30.11,29.84,23,5,30,0.00
2013-11-9,56,43,34,22,18,14,57,37,21,30.13,29.96,12,2,15,0.00
2013-11-10,55,44,35,21,16,12,56,33,22,30.19,30.11,13,2,17,0.00
2013-11-11,54,42,27,23,16,12,79,37,23,30.37,30.13,12,3,15,0.00
2013-11-12,50,33,21,27,21,16,93,64,31,30.60,30.37,9,1,11,0.00
2013-11-13,51,42,36,20,16,14,42,34,26,30.53,29.97,14,3,14,0.00
2013-11-14,50,39,32,22,18,9,62,45,19,29.97,29.75,12,2,15,0.00
2013-11-15,43,35,29,28,20,12,90,55,39,29.76,29.51,26,5,31,0.00
2013-11-16,36,31,26,27,21,11,92,65,35,29.58,29.44,28,8,38,0.00
2013-11-17,41,33,25,24,16,12,91,52,36,30.17,29.58,29,6,33,0.00
2013-11-18,50,38,27,18,14,9,51,39,22,30.22,30.05,14,2,17,0.00
2013-11-19,45,37,32,21,18,13,54,45,36,30.05,29.73,18,4,20,0.00
2013-11-20,45,37,30,27,22,20,87,55,38,29.84,29.72,15,3,20,0.00
2013-11-21,30,21,8,27,18,4,93,90,86,30.57,29.82,9,2,10,0.01
2013-11-22,21,16,7,18,13,4,91,89,86,30.81,30.56,5,0,6,0.00
2013-11-23,23,18,15,18,15,12,92,87,73,30.80,30.55,6,0,6,0.00
2013-11-24,28,23,16,24,20,13,93,89,83,30.55,30.08,8,1,9,0.00
2013-11-25,30,26,22,24,19,14,92,76,64,30.43,30.07,10,1,15,0.01
2013-11-26,34,26,20,22,18,14,82,70,54,30.54,30.42,11,1,12,0.34
2013-11-27,44,33,24,25,17,12,63,52,43,30.43,30.18,12,1,13,0.13
2013-11-28,44,34,28,22,15,11,57,46,33,30.23,30.13,10,1,12,0.01
2013-11-29,42,34,30,16,12,10,48,40,31,30.26,30.17,19,4,20,0.00
2013-11-30,41,33,29,18,13,11,55,45,32,30.27,30.18,18,3,18,0.00
2013-12-1,40,33,26,20,14,11,56,46,36,30.24,30.00,20,6,24,0.00
2013-12-2,44,37,33,20,18,14,56,46,35,30.01,29.62,23,7,32,0.00
2013-12-3,35,32,29,22,18,14,71,56,43,29.63,29.41,23,7,28,0.00
2013-12-4,30,6,-9,21,2,-14,94,80,67,30.22,29.37,21,3,28,0.00
2013-12-5,13,-3,-13,7,-8,-18,92,79,72,30.48,30.21,6,0,7,0.12
2013-12-6,11,2,-12,4,-5,-18,83,74,61,30.61,30.45,26,3,32,0.00
2013-12-7,19,13,8,11,4,-3,87,66,52,30.52,29.87,27,6,37,0.00
2013-12-8,15,11,4,11,-2,-10,88,58,38,30.18,29.78,21,4,22,0.00
2013-12-9,12,6,-1,-8,-11,-13,68,47,32,30.65,30.18,26,6,30,0.00
2013-12-10,30,20,4,7,1,-13,47,42,36,30.66,30.32,21,6,28,0.00
2013-12-11,34,25,16,10,4,0,61,42,29,30.54,30.37,16,3,20,0.01
2013-12-12,44,34,20,10,4,-1,42,28,18,30.53,29.99,16,4,18,0.01
2013-12-13,39,31,22,12,9,5,55,40,30,30.10,29.80,20,4,21,0.00
2013-12-14,32,23,15,10,7,5,66,50,36,30.46,30.11,23,5,23,0.00
2013-12-15,42,32,23,18,13,10,60,46,33,30.43,30.29,25,7,30,0.00
2013-12-16,45,37,31,19,13,7,45,37,30,30.30,30.18,21,5,21,0.00
2013-12-17,48,38,30,18,12,8,41,33,26,30.36,30.17,18,2,23,0.00
2013-12-18,49,42,37,19,11,7,42,28,21,30.17,29.64,19,6,25,0.00
2013-12-19,43,36,29,19,16,11,60,44,33,29.63,29.47,21,6,27,0.00
2013-12-20,31,26,23,20,16,12,73,64,57,29.70,29.60,21,4,25,0.00
2013-12-21,27,21,15,17,11,6,88,66,44,29.96,29.57,15,2,17,0.00
2013-12-22,25,17,10,12,6,3,88,63,45,30.39,29.96,17,3,26,0.10
2013-12-23,32,24,18,13,8,4,66,51,39,30.50,30.38,16,4,23,0.01
2013-12-24,37,28,16,20,14,1,74,56,43,30.42,30.12,23,5,28,0.00
2013-12-25,34,24,13,7,1,-6,55,38,30,30.56,30.35,14,3,18,0.00
2013-12-26,41,32,26,12,7,-1,54,35,26,30.49,30.31,18,4,22,0.00
2013-12-27,47,34,24,20,15,11,58,47,34,30.39,30.13,9,2,13,0.00
2013-12-28,42,33,20,26,18,14,90,56,36,30.13,29.82,15,4,18,0.00
2013-12-29,26,20,14,21,14,7,94,79,51,30.25,29.98,22,3,24,0.13
2013-12-30,35,27,22,12,8,6,55,45,34,30.39,30.22,16,4,21,0.03
2013-12-31,41,32,26,19,14,8,59,46,39,30.30,30.00,24,5,30,0.02
2014-1-1,34,27,18,22,13,6,91,56,34,30.31,29.93,20,4,22,0.01
2014-1-2,43,31,20,12,6,1,55,35,26,30.39,30.15,15,4,20,0.00